Atlantica — WDF3913 — position and weather

sailwx.info

Track history (hours):
 
Tides and Currents Weather Stations Pressure Air Temp Water Temp Dewpoint Dewpoint Depression Visibility Wind Speed Wind Dir Waves Ship Positions

Atlantica

Owner: Spirit Cruises LLC, New York, NY. More information available from US FCC via Universal Licensing System and Coast Guard Vessel Documentation Center.

Last reported at 2018-Apr-18 17:12 UTC. Time now 2018-Apr-20 01:28 UTC.
Position N 40°45' W 074°01'.

Length 45 m; draft 3.5 m.

Type: Passenger vessel. MMSI: 367445550.

Date/timePositionNaut miles runAvg speedWind from/ knotsBaromVisibWave heightAir tempDewpointWater temp
2018-Apr-18 17:12N 40°45' W 074°01'210.2
2018-Apr-18 17:01N 40°43' W 074°01'510.8
2018-Apr-18 16:30N 40°38' W 074°03'1 1.4
2018-Apr-18 16:00N 40°37' W 074°04'0 0.0
2018-Apr-18 15:30N 40°37' W 074°04'0 0.0
2018-Apr-18 15:00N 40°37' W 074°04'0 0.0
2018-Apr-18 14:30N 40°37' W 074°04'0 0.0
2018-Apr-18 14:00N 40°37' W 074°04'0 0.0
2018-Apr-18 13:00N 40°37' W 074°04'0 0.3
2018-Apr-18 12:30N 40°37' W 074°04'4 8.5
2018-Apr-18 12:00N 40°41' W 074°02'  
2018-Apr-15 02:43N 40°45' W 074°01'1 2.8
2018-Apr-15 02:30N 40°45' W 074°01'0 0.4
2018-Apr-15 02:00N 40°46' W 074°01'2 4.2
2018-Apr-15 01:30N 40°43' W 074°01'2 4.1
2018-Apr-15 01:00N 40°42' W 074°02'3 6.1
2018-Apr-15 00:30N 40°43' W 073°59'1 2.0
2018-Apr-15 00:00N 40°42' W 073°60'2 3.7
2018-Apr-14 23:30N 40°44' W 074°01'2 3.5
2018-Apr-14 23:00N 40°46' W 074°01'0 0.0
2018-Apr-14 22:30N 40°46' W 074°01'0 0.0
2018-Apr-14 22:00N 40°46' W 074°01'1 1.5
2018-Apr-14 21:30N 40°45' W 074°01'  
2018-Apr-12 02:23N 40°45' W 074°01'2 5.5
2018-Apr-12 02:01N 40°43' W 074°02'0 0.1
2018-Apr-12 01:31N 40°43' W 074°02'2 3.9
2018-Apr-12 01:01N 40°41' W 074°03'5 9.1
2018-Apr-12 00:31N 40°46' W 074°01'3 6.6
2018-Apr-12 00:00N 40°42' W 074°01'2 4.9
2018-Apr-11 23:30N 40°43' W 073°58'1 1.8
2018-Apr-11 23:00N 40°42' W 073°59'2 4.2
2018-Apr-11 22:30N 40°43' W 074°02'0 0.0
2018-Apr-11 22:01N 40°43' W 074°02'2 3.3
2018-Apr-11 21:30N 40°45' W 074°01'0 0.0
2018-Apr-10 15:56N 40°45' W 074°01'0 0.1
2018-Apr-10 15:30N 40°45' W 074°01'0 0.0
2018-Apr-10 15:00N 40°45' W 074°01'1 1.1
2018-Apr-10 14:30N 40°44' W 074°01'4 7.8
2018-Apr-10 14:00N 40°41' W 074°02'4 3.7
2018-Apr-10 13:00N 40°37' W 074°04'611.1
2018-Apr-10 12:30N 40°43' W 074°02'2 4.9
2018-Apr-10 12:00N 40°45' W 074°01'  
Track history (hours):
 
Tides and Currents Weather Stations Pressure Air Temp Water Temp Dewpoint Dewpoint Depression Visibility Wind Speed Wind Dir Waves Ship Positions

Atlantica

Owner: Spirit Cruises LLC, New York, NY. More information available from US FCC via Universal Licensing System and Coast Guard Vessel Documentation Center.

Last reported at 2018-Apr-18 17:12 UTC. Time now 2018-Apr-20 01:28 UTC.
Position N 40°45' W 074°01'.

Length 45 m; draft 3.5 m.

Type: Passenger vessel. MMSI: 367445550.

Date/timePositionNaut miles runAvg speedWind from/ knotsBaromVisibWave heightAir tempDewpointWater temp
2018-Apr-18 17:12N 40°45' W 074°01'210.2
2018-Apr-18 17:01N 40°43' W 074°01'510.8
2018-Apr-18 16:30N 40°38' W 074°03'1 1.4
2018-Apr-18 16:00N 40°37' W 074°04'0 0.0
2018-Apr-18 15:30N 40°37' W 074°04'0 0.0
2018-Apr-18 15:00N 40°37' W 074°04'0 0.0
2018-Apr-18 14:30N 40°37' W 074°04'0 0.0
2018-Apr-18 14:00N 40°37' W 074°04'0 0.0
2018-Apr-18 13:00N 40°37' W 074°04'0 0.3
2018-Apr-18 12:30N 40°37' W 074°04'4 8.5
2018-Apr-18 12:00N 40°41' W 074°02'  
2018-Apr-15 02:43N 40°45' W 074°01'1 2.8
2018-Apr-15 02:30N 40°45' W 074°01'0 0.4
2018-Apr-15 02:00N 40°46' W 074°01'2 4.2
2018-Apr-15 01:30N 40°43' W 074°01'2 4.1
2018-Apr-15 01:00N 40°42' W 074°02'3 6.1
2018-Apr-15 00:30N 40°43' W 073°59'1 2.0
2018-Apr-15 00:00N 40°42' W 073°60'2 3.7
2018-Apr-14 23:30N 40°44' W 074°01'2 3.5
2018-Apr-14 23:00N 40°46' W 074°01'0 0.0
2018-Apr-14 22:30N 40°46' W 074°01'0 0.0
2018-Apr-14 22:00N 40°46' W 074°01'1 1.5
2018-Apr-14 21:30N 40°45' W 074°01'  
2018-Apr-12 02:23N 40°45' W 074°01'2 5.5
2018-Apr-12 02:01N 40°43' W 074°02'0 0.1
2018-Apr-12 01:31N 40°43' W 074°02'2 3.9
2018-Apr-12 01:01N 40°41' W 074°03'5 9.1
2018-Apr-12 00:31N 40°46' W 074°01'3 6.6
2018-Apr-12 00:00N 40°42' W 074°01'2 4.9
2018-Apr-11 23:30N 40°43' W 073°58'1 1.8
2018-Apr-11 23:00N 40°42' W 073°59'2 4.2
2018-Apr-11 22:30N 40°43' W 074°02'0 0.0
2018-Apr-11 22:01N 40°43' W 074°02'2 3.3
2018-Apr-11 21:30N 40°45' W 074°01'0 0.0
2018-Apr-10 15:56N 40°45' W 074°01'0 0.1
2018-Apr-10 15:30N 40°45' W 074°01'0 0.0
2018-Apr-10 15:00N 40°45' W 074°01'1 1.1
2018-Apr-10 14:30N 40°44' W 074°01'4 7.8
2018-Apr-10 14:00N 40°41' W 074°02'4 3.7
2018-Apr-10 13:00N 40°37' W 074°04'611.1
2018-Apr-10 12:30N 40°43' W 074°02'2 4.9
2018-Apr-10 12:00N 40°45' W 074°01'  

Dump ship's entire track history